Ms Simon — A8DU9 — position and weather

sailwx.info

Track history (hours):
 
Tides and Currents Weather Stations Pressure Air Temp Water Temp Dewpoint Dewpoint Depression Visibility Wind Speed Wind Dir Waves Ship Positions

Ms Simon

Last reported at 2018-Jun-20 08:59 UTC. Time now 2018-Jun-20 13:13 UTC.
Position N 39°43' E 023°55'.

Length 175 m; draft 7.2 m.

Type: Tanker. MMSI: 636091485.

Date/timePositionNaut miles runAvg speedWind from/ knotsBaromVisibWave heightAir tempDewpointWater temp
2018-Jun-20 08:59N 39°43' E 023°55'161 7.5
2018-Jun-19 11:26N 37°27' E 025°45'3 7.5
2018-Jun-19 10:59N 37°25' E 025°49'4 8.3
2018-Jun-19 10:30N 37°23' E 025°53'  
2018-Jun-13 17:48N 37°23' E 025°55'413.6
2018-Jun-13 17:30N 37°25' E 025°51'14811.8
2018-Jun-13 04:57N 39°52' E 025°45'613.3
2018-Jun-13 04:30N 39°57' E 025°50'712.9
2018-Jun-13 03:57N 40°01' E 025°58'4411.6
2018-Jun-13 00:12N 40°26' E 026°44'119 3.7
2018-Jun-11 16:24N 41°17' E 029°05'4 8.9
2018-Jun-11 15:59N 41°18' E 029°01'2 0.2
2018-Jun-11 07:30N 41°17' E 028°59'2 2.9
2018-Jun-11 06:54N 41°19' E 028°59'1411.4
2018-Jun-11 05:42N 41°32' E 029°03'212.2
2018-Jun-11 05:30N 41°35' E 029°03'612.2
2018-Jun-11 05:00N 41°40' E 029°00'612.6
2018-Jun-11 04:30N 41°45' E 028°54'612.6
2018-Jun-11 04:00N 41°50' E 028°49'612.5
2018-Jun-11 03:30N 41°55' E 028°43'612.3
2018-Jun-11 03:00N 41°59' E 028°38'612.0
2018-Jun-11 02:31N 42°04' E 028°33'612.0
2018-Jun-11 02:00N 42°08' E 028°28'611.9
2018-Jun-11 01:30N 42°13' E 028°22'611.9
2018-Jun-11 01:00N 42°17' E 028°17'612.6
2018-Jun-11 00:30N 42°22' E 028°11'913.0
2018-Jun-10 23:49N 42°27' E 028°01'512.7
2018-Jun-10 23:27N 42°27' E 027°55'511.4
2018-Jun-10 23:00N 42°28' E 027°48'  
Track history (hours):
 
Tides and Currents Weather Stations Pressure Air Temp Water Temp Dewpoint Dewpoint Depression Visibility Wind Speed Wind Dir Waves Ship Positions

Ms Simon

Last reported at 2018-Jun-20 08:59 UTC. Time now 2018-Jun-20 13:13 UTC.
Position N 39°43' E 023°55'.

Length 175 m; draft 7.2 m.

Type: Tanker. MMSI: 636091485.

Date/timePositionNaut miles runAvg speedWind from/ knotsBaromVisibWave heightAir tempDewpointWater temp
2018-Jun-20 08:59N 39°43' E 023°55'161 7.5
2018-Jun-19 11:26N 37°27' E 025°45'3 7.5
2018-Jun-19 10:59N 37°25' E 025°49'4 8.3
2018-Jun-19 10:30N 37°23' E 025°53'  
2018-Jun-13 17:48N 37°23' E 025°55'413.6
2018-Jun-13 17:30N 37°25' E 025°51'14811.8
2018-Jun-13 04:57N 39°52' E 025°45'613.3
2018-Jun-13 04:30N 39°57' E 025°50'712.9
2018-Jun-13 03:57N 40°01' E 025°58'4411.6
2018-Jun-13 00:12N 40°26' E 026°44'119 3.7
2018-Jun-11 16:24N 41°17' E 029°05'4 8.9
2018-Jun-11 15:59N 41°18' E 029°01'2 0.2
2018-Jun-11 07:30N 41°17' E 028°59'2 2.9
2018-Jun-11 06:54N 41°19' E 028°59'1411.4
2018-Jun-11 05:42N 41°32' E 029°03'212.2
2018-Jun-11 05:30N 41°35' E 029°03'612.2
2018-Jun-11 05:00N 41°40' E 029°00'612.6
2018-Jun-11 04:30N 41°45' E 028°54'612.6
2018-Jun-11 04:00N 41°50' E 028°49'612.5
2018-Jun-11 03:30N 41°55' E 028°43'612.3
2018-Jun-11 03:00N 41°59' E 028°38'612.0
2018-Jun-11 02:31N 42°04' E 028°33'612.0
2018-Jun-11 02:00N 42°08' E 028°28'611.9
2018-Jun-11 01:30N 42°13' E 028°22'611.9
2018-Jun-11 01:00N 42°17' E 028°17'612.6
2018-Jun-11 00:30N 42°22' E 028°11'913.0
2018-Jun-10 23:49N 42°27' E 028°01'512.7
2018-Jun-10 23:27N 42°27' E 027°55'511.4
2018-Jun-10 23:00N 42°28' E 027°48'  

Dump ship's entire track history